Time;durP1;ratioP1;P1;durP2;ratioP2;P2;SDS_P1;SDS_P2;PMS_P1;PMS_P2;Temp;Humidity;BMP_temperature;BMP_pressure;BME280_temperature;BME280_humidity;BME280_pressure;Samples;Min_cycle;Max_cycle;Signal;HPM_P1;HPM_P2
2021/05/15 00:00:09;;;;;;;31.95;18.62;;;;;;;11.34;70.22;99654.59;4405918;32;20121;-79
2021/05/15 00:02:35;;;;;;;35.22;18.62;;;;;;;11.42;69.73;99644.56;4404158;32;20041;-79
2021/05/15 00:05:01;;;;;;;33.03;17.90;;;;;;;11.45;69.92;99654.12;4407689;32;20517;-78
2021/05/15 00:07:27;;;;;;;28.58;16.92;;;;;;;11.45;69.92;99648.50;4405048;32;20064;-77
2021/05/15 00:09:52;;;;;;;35.00;17.15;;;;;;;11.49;69.72;99640.66;4404340;32;20144;-78
2021/05/15 00:12:19;;;;;;;26.42;14.50;;;;;;;11.49;69.35;99646.28;4391575;32;20081;-77
2021/05/15 00:14:45;;;;;;;28.40;15.10;;;;;;;11.51;69.42;99643.78;4403229;32;20448;-77
2021/05/15 00:17:10;;;;;;;24.77;14.93;;;;;;;11.54;69.10;99640.03;4408006;32;20060;-77
2021/05/15 00:19:37;;;;;;;30.52;15.30;;;;;;;11.56;68.93;99643.13;4392010;32;20419;-77
2021/05/15 00:22:03;;;;;;;30.75;15.02;;;;;;;11.53;69.04;99644.88;4406814;32;20080;-78
2021/05/15 00:24:29;;;;;;;27.40;14.85;;;;;;;11.55;68.49;99642.37;4405284;32;20030;-79
2021/05/15 00:26:54;;;;;;;27.45;15.07;;;;;;;11.56;68.65;99631.88;4403287;32;20414;-79
2021/05/15 00:29:20;;;;;;;25.55;14.63;;;;;;;11.53;68.75;99632.81;4388579;32;20434;-80
2021/05/15 00:31:47;;;;;;;28.52;14.90;;;;;;;11.57;68.55;99633.44;4403529;32;20146;-77
2021/05/15 00:34:12;;;;;;;28.17;15.13;;;;;;;11.60;68.67;99638.13;4406658;32;20177;-77
2021/05/15 00:36:38;;;;;;;26.50;14.65;;;;;;;11.52;68.71;99629.22;4407038;32;20026;-77
2021/05/15 00:39:05;;;;;;;28.45;15.27;;;;;;;11.59;68.75;99625.28;4406595;32;20077;-79
2021/05/15 00:41:31;;;;;;;28.60;15.88;;;;;;;11.72;68.45;99620.31;4409447;32;20382;-78
2021/05/15 00:44:12;;;;;;;29.52;16.67;;;;;;;11.71;68.43;99621.53;4404929;32;20093;-77
2021/05/15 00:46:39;;;;;;;27.65;15.80;;;;;;;11.65;68.83;99612.16;4405528;32;20027;-78
2021/05/15 00:49:06;;;;;;;30.88;16.27;;;;;;;11.65;68.82;99612.16;4407409;32;20106;-78
2021/05/15 00:51:32;;;;;;;33.78;16.90;;;;;;;11.62;69.19;99608.25;4405216;32;20042;-78
2021/05/15 00:53:59;;;;;;;31.02;16.10;;;;;;;11.65;69.23;99606.53;4405417;32;20464;-78
2021/05/15 00:56:28;;;;;;;26.95;15.20;;;;;;;11.67;68.86;99609.66;4393426;32;20493;-77
2021/05/15 00:58:54;;;;;;;30.42;16.08;;;;;;;11.71;68.91;99607.44;4404265;32;20042;-78
2021/05/15 01:01:20;;;;;;;27.10;15.40;;;;;;;11.73;68.72;99599.31;4401454;32;20050;-77
2021/05/15 01:03:45;;;;;;;27.02;16.05;;;;;;;11.87;67.85;99593.78;4404695;32;20122;-78
2021/05/15 01:06:11;;;;;;;28.87;15.82;;;;;;;11.88;68.10;99592.50;4404975;32;20544;-77
2021/05/15 01:08:40;;;;;;;28.92;14.90;;;;;;;11.71;68.73;99590.53;4403887;32;20139;-78
2021/05/15 01:11:05;;;;;;;28.12;16.12;;;;;;;11.70;68.74;99586.16;4406240;32;20058;-78
2021/05/15 01:13:33;;;;;;;29.58;15.95;;;;;;;11.76;68.47;99584.28;4406137;32;20082;-77
2021/05/15 01:16:00;;;;;;;27.75;14.40;;;;;;;11.74;68.60;99581.13;4402834;32;20073;-78
2021/05/15 01:18:26;;;;;;;29.17;14.80;;;;;;;11.75;68.95;99586.31;4404680;32;20379;-77
2021/05/15 01:20:52;;;;;;;28.10;15.38;;;;;;;11.77;68.81;99577.38;4408905;32;20080;-78
2021/05/15 01:23:17;;;;;;;31.12;16.50;;;;;;;11.77;68.61;99577.38;4405200;32;20118;-77
2021/05/15 01:25:44;;;;;;;30.35;17.12;;;;;;;11.78;68.91;99576.91;4406756;32;20066;-77
2021/05/15 01:28:10;;;;;;;30.30;16.70;;;;;;;11.77;69.38;99558.44;4402975;32;20060;-77
2021/05/15 01:30:36;;;;;;;33.75;17.98;;;;;;;11.79;69.65;99567.19;4405733;32;20431;-78
2021/05/15 01:33:01;;;;;;;28.33;16.55;;;;;;;11.84;69.65;99557.28;4408220;32;20084;-77
2021/05/15 01:35:27;;;;;;;32.30;16.55;;;;;;;11.89;69.60;99551.03;4406229;32;20085;-78
2021/05/15 01:37:57;;;;;;;31.55;16.90;;;;;;;11.86;69.99;99549.94;4405459;32;20429;-78
2021/05/15 01:40:23;;;;;;;35.08;17.33;;;;;;;11.91;69.96;99545.69;4406864;32;20398;-77
2021/05/15 01:42:49;;;;;;;36.40;17.65;;;;;;;11.80;70.94;99551.84;4403900;32;20113;-77
2021/05/15 01:45:15;;;;;;;31.60;16.37;;;;;;;11.81;71.03;99538.50;4403497;32;20095;-78
2021/05/15 01:47:41;;;;;;;33.33;17.27;;;;;;;11.79;71.03;99539.00;4390603;32;20030;-77
2021/05/15 01:50:12;;;;;;;36.33;18.30;;;;;;;11.82;71.07;99543.69;4403613;32;20155;-77
2021/05/15 01:52:38;;;;;;;33.25;16.50;;;;;;;11.80;71.37;99534.16;4404412;32;20042;-76
2021/05/15 01:55:19;;;;;;;32.83;16.80;;;;;;;11.83;71.52;99519.88;4404059;32;20469;-77
2021/05/15 01:57:44;;;;;;;35.45;17.58;;;;;;;11.87;71.30;99522.53;4404664;32;20068;-77
2021/05/15 02:00:11;;;;;;;33.45;16.90;;;;;;;11.74;71.81;99519.94;4409113;32;20046;-77
2021/05/15 02:02:36;;;;;;;28.15;15.07;;;;;;;11.77;71.17;99518.97;4405899;32;20499;-77
2021/05/15 02:05:02;;;;;;;26.52;15.23;;;;;;;11.79;70.80;99504.41;4403593;32;20569;-77
2021/05/15 02:07:28;;;;;;;28.95;15.88;;;;;;;11.80;70.00;99508.78;4405417;32;20111;-77
2021/05/15 02:09:54;;;;;;;26.08;15.32;;;;;;;11.76;69.57;99505.37;4406010;32;20038;-77
2021/05/15 02:12:20;;;;;;;27.42;14.40;;;;;;;11.73;69.80;99512.72;4404354;32;20089;-77
2021/05/15 02:14:45;;;;;;;32.83;16.45;;;;;;;11.70;69.76;99505.25;4407542;32;20042;-77
2021/05/15 02:17:11;;;;;;;28.80;15.48;;;;;;;11.68;70.14;99499.28;4405536;32;20062;-77
2021/05/15 02:19:37;;;;;;;34.08;16.42;;;;;;;11.67;70.83;99494.91;4408420;32;20133;-76
2021/05/15 02:22:03;;;;;;;30.60;17.15;;;;;;;11.59;71.58;99490.03;4410559;32;20034;-77
2021/05/15 02:24:28;;;;;;;29.83;15.77;;;;;;;11.55;71.89;99490.22;4409474;32;20030;-77
2021/05/15 02:26:54;;;;;;;33.28;16.73;;;;;;;11.62;71.53;99483.50;4406023;32;20026;-77
2021/05/15 02:29:19;;;;;;;30.08;15.60;;;;;;;11.59;71.93;99479.56;4405225;32;20077;-77
2021/05/15 02:31:45;;;;;;;30.10;16.12;;;;;;;11.60;71.55;99481.13;4410976;32;20626;-77
2021/05/15 02:34:11;;;;;;;32.78;16.05;;;;;;;11.59;71.38;99479.56;4406578;32;20109;-77
2021/05/15 02:36:37;;;;;;;32.75;15.82;;;;;;;11.56;71.73;99472.06;4409713;32;20034;-77
2021/05/15 02:39:03;;;;;;;30.42;15.57;;;;;;;11.54;71.76;99471.75;4408241;32;20124;-77
2021/05/15 02:41:29;;;;;;;28.05;15.57;;;;;;;11.51;71.96;99466.31;4405251;32;20091;-77
2021/05/15 02:43:55;;;;;;;27.67;14.77;;;;;;;11.41;72.31;99457.09;4405194;32;20093;-77
2021/05/15 02:46:20;;;;;;;30.62;16.95;;;;;;;11.28;72.98;99455.72;4411320;32;20381;-77
2021/05/15 02:48:46;;;;;;;30.42;16.50;;;;;;;11.18;73.41;99457.00;4407289;32;20113;-77
2021/05/15 02:51:12;;;;;;;31.15;16.45;;;;;;;11.09;73.72;99452.19;4408968;32;20543;-77
2021/05/15 02:53:37;;;;;;;30.95;16.40;;;;;;;11.06;73.71;99460.78;4408536;32;20041;-77
2021/05/15 02:56:03;;;;;;;29.17;17.27;;;;;;;10.92;73.94;99450.22;4410155;32;20473;-77
2021/05/15 02:58:29;;;;;;;33.05;15.73;;;;;;;10.94;73.76;99448.47;4406724;32;20041;-79
2021/05/15 03:00:54;;;;;;;27.83;16.33;;;;;;;10.90;73.84;99442.25;4406507;32;20085;-79
2021/05/15 03:03:22;;;;;;;29.40;15.90;;;;;;;10.85;74.12;99442.84;4409822;32;20046;-76
2021/05/15 03:05:48;;;;;;;28.73;15.85;;;;;;;10.87;74.15;99442.38;4405728;32;20049;-77
2021/05/15 03:08:13;;;;;;;30.95;16.37;;;;;;;10.83;74.03;99441.78;4407112;32;20041;-77
2021/05/15 03:10:39;;;;;;;33.78;16.25;;;;;;;10.86;74.00;99429.59;4411410;32;20463;-77
2021/05/15 03:13:05;;;;;;;29.58;15.60;;;;;;;10.80;74.21;99437.09;4411425;32;20050;-77
2021/05/15 03:15:31;;;;;;;31.83;16.77;;;;;;;10.83;73.92;99425.66;4406264;32;20100;-77
2021/05/15 03:17:57;;;;;;;33.65;16.87;;;;;;;10.99;73.46;99428.16;4405353;32;20429;-77
2021/05/15 03:20:25;;;;;;;28.65;15.85;;;;;;;11.04;73.44;99418.25;4405374;32;20069;-77
2021/05/15 03:22:52;;;;;;;35.85;17.52;;;;;;;11.04;73.41;99415.44;4405904;32;20034;-77
2021/05/15 03:25:19;;;;;;;29.45;16.17;;;;;;;11.06;73.44;99419.38;4393120;32;20042;-77
2021/05/15 03:27:44;;;;;;;33.28;16.83;;;;;;;10.90;73.99;99411.28;4408803;32;20124;-77
2021/05/15 03:30:12;;;;;;;33.15;16.35;;;;;;;10.85;73.88;99409.09;4407062;32;20046;-77
2021/05/15 03:32:40;;;;;;;28.40;16.00;;;;;;;10.86;74.27;99409.88;4407010;32;20080;-77
2021/05/15 03:35:08;;;;;;;34.53;16.95;;;;;;;10.86;74.38;99401.44;4406315;32;20096;-77
2021/05/15 03:37:34;;;;;;;27.48;14.55;;;;;;;10.87;74.45;99400.19;4407308;32;20060;-77
2021/05/15 03:40:00;;;;;;;29.98;16.50;;;;;;;10.90;74.19;99390.78;4406327;32;20078;-77
2021/05/15 03:42:26;;;;;;;27.80;14.75;;;;;;;10.88;74.10;99390.47;4409433;32;20046;-77
2021/05/15 03:44:52;;;;;;;26.55;15.10;;;;;;;10.93;73.77;99392.66;4407745;32;20098;-77
2021/05/15 03:47:17;;;;;;;30.58;16.17;;;;;;;10.98;73.66;99384.34;4407957;32;20065;-77
2021/05/15 03:49:43;;;;;;;35.00;16.67;;;;;;;11.09;73.30;99386.66;4407436;32;20130;-77
2021/05/15 03:52:09;;;;;;;29.70;15.45;;;;;;;11.25;72.48;99387.06;4406203;32;20144;-77
2021/05/15 03:54:36;;;;;;;27.87;15.10;;;;;;;11.23;72.32;99386.75;4407701;32;20401;-77
2021/05/15 03:57:02;;;;;;;25.92;14.63;;;;;;;11.29;72.39;99378.47;4407892;32;20066;-77
2021/05/15 03:59:28;;;;;;;28.27;15.38;;;;;;;11.37;72.06;99377.63;4405685;32;20077;-77
2021/05/15 04:01:53;;;;;;;31.62;16.65;;;;;;;11.44;71.71;99371.62;4407291;32;20425;-77
2021/05/15 04:04:19;;;;;;;33.22;16.02;;;;;;;11.49;70.98;99368.19;4405325;32;20419;-77
2021/05/15 04:06:45;;;;;;;29.60;15.95;;;;;;;11.49;70.79;99378.66;4408243;32;20071;-77
2021/05/15 04:09:10;;;;;;;28.67;15.60;;;;;;;11.49;70.70;99370.22;4407114;32;20117;-77
2021/05/15 04:11:39;;;;;;;32.05;16.45;;;;;;;11.48;71.16;99369.41;4405742;32;20046;-77
2021/05/15 04:14:21;;;;;;;32.88;16.67;;;;;;;11.60;70.94;99374.03;4407932;32;20484;-77
2021/05/15 04:17:02;;;;;;;31.65;16.65;;;;;;;11.62;71.07;99368.75;4406417;32;20079;-77
2021/05/15 04:19:28;;;;;;;32.78;16.30;;;;;;;11.62;70.98;99365.94;4406756;32;20082;-77
2021/05/15 04:21:54;;;;;;;30.35;15.98;;;;;;;11.73;70.89;99368.97;4404826;32;20039;-78
2021/05/15 04:24:23;;;;;;;31.08;15.45;;;;;;;11.89;70.67;99364.97;4405858;32;20058;-78
2021/05/15 04:26:51;;;;;;;33.67;16.50;;;;;;;11.88;70.68;99360.63;4407760;32;20042;-78
2021/05/15 04:29:17;;;;;;;30.77;15.63;;;;;;;11.93;70.67;99352.25;4404748;32;20146;-78
2021/05/15 04:31:43;;;;;;;31.90;15.75;;;;;;;12.03;70.66;99352.97;4405778;32;20078;-78
2021/05/15 04:34:08;;;;;;;28.50;15.57;;;;;;;12.07;70.34;99350.75;4406151;32;20105;-78
2021/05/15 04:36:34;;;;;;;33.10;16.52;;;;;;;12.02;70.40;99352.19;4408494;32;20037;-78
2021/05/15 04:38:59;;;;;;;29.02;15.35;;;;;;;12.08;70.34;99346.66;4403400;32;20045;-78
2021/05/15 04:41:25;;;;;;;31.85;15.38;;;;;;;12.16;70.19;99341.44;4404544;32;20073;-78
2021/05/15 04:43:51;;;;;;;37.00;15.63;;;;;;;12.21;69.65;99335.88;4403855;32;20105;-78
2021/05/15 04:46:16;;;;;;;30.98;16.55;;;;;;;12.24;69.45;99337.75;4409767;32;20045;-78
2021/05/15 04:48:44;;;;;;;30.10;15.98;;;;;;;12.31;69.38;99336.59;4394881;32;20107;-78
2021/05/15 04:51:11;;;;;;;30.77;16.12;;;;;;;12.36;69.34;99333.88;4395959;32;20074;-78
2021/05/15 04:53:37;;;;;;;28.20;15.02;;;;;;;12.37;69.09;99331.84;4405962;32;20072;-78
2021/05/15 04:56:03;;;;;;;30.25;15.32;;;;;;;12.49;69.12;99331.53;4406083;32;20463;-78
2021/05/15 04:58:29;;;;;;;33.13;15.38;;;;;;;12.58;68.43;99328.63;4406043;32;20482;-78
2021/05/15 05:00:55;;;;;;;31.67;16.30;;;;;;;12.59;68.46;99320.97;4405498;32;20553;-78
2021/05/15 05:03:21;;;;;;;28.60;14.70;;;;;;;12.62;68.25;99323.59;4403711;32;20042;-78
2021/05/15 05:05:47;;;;;;;29.33;15.85;;;;;;;12.64;68.48;99321.03;4405797;32;20068;-78
2021/05/15 05:08:12;;;;;;;28.92;16.23;;;;;;;12.66;68.69;99327.00;4408473;32;20149;-78
2021/05/15 05:10:38;;;;;;;27.75;15.27;;;;;;;12.66;68.99;99321.34;4407627;32;20054;-78
2021/05/15 05:13:04;;;;;;;30.75;15.07;;;;;;;12.66;68.61;99317.75;4404141;32;20481;-78
2021/05/15 05:15:31;;;;;;;28.48;15.35;;;;;;;12.64;68.72;99323.09;4405583;32;20039;-78
2021/05/15 05:17:57;;;;;;;32.22;15.85;;;;;;;12.67;68.42;99317.25;4408184;32;20058;-78
2021/05/15 05:20:22;;;;;;;30.90;15.43;;;;;;;12.74;68.22;99313.28;4406262;32;20516;-78
2021/05/15 05:22:50;;;;;;;25.48;15.30;;;;;;;12.69;68.16;99317.56;4405770;32;20156;-78
2021/05/15 05:25:17;;;;;;;29.55;16.08;;;;;;;12.72;67.89;99321.44;4404549;32;20430;-78
2021/05/15 05:27:48;;;;;;;28.60;14.85;;;;;;;12.73;68.35;99315.31;4403153;32;21116;-78
2021/05/15 05:30:16;;;;;;;25.75;14.90;;;;;;;12.79;68.54;99313.34;4406338;32;20389;-78
2021/05/15 05:32:43;;;;;;;28.77;14.93;;;;;;;12.82;68.48;99314.44;4407705;32;20108;-78
2021/05/15 05:35:10;;;;;;;28.50;14.38;;;;;;;12.85;68.41;99313.44;4406432;32;20528;-78
2021/05/15 05:37:36;;;;;;;33.15;15.80;;;;;;;12.76;68.03;99314.34;4408211;32;20086;-78
2021/05/15 05:40:04;;;;;;;26.62;13.93;;;;;;;12.77;68.47;99312.28;4403769;32;21514;-78
2021/05/15 05:42:29;;;;;;;26.12;14.40;;;;;;;12.82;68.61;99317.25;4408411;32;20022;-79
2021/05/15 05:44:55;;;;;;;25.98;14.05;;;;;;;12.82;68.17;99317.25;4402946;32;20080;-78
2021/05/15 05:47:21;;;;;;;27.87;14.05;;;;;;;12.86;67.61;99306.53;4405199;32;20049;-78
2021/05/15 05:49:46;;;;;;;22.58;12.70;;;;;;;12.84;67.87;99312.69;4403864;32;20588;-78
2021/05/15 05:52:14;;;;;;;26.42;13.18;;;;;;;12.91;67.67;99305.84;4407649;32;20441;-78
2021/05/15 05:54:40;;;;;;;30.17;13.48;;;;;;;12.94;67.50;99310.50;4407367;32;20072;-78
2021/05/15 05:57:06;;;;;;;29.58;13.70;;;;;;;12.93;67.49;99306.94;4407320;32;20046;-78
2021/05/15 05:59:31;;;;;;;25.35;13.60;;;;;;;13.16;66.79;99306.03;4407515;32;20089;-78
2021/05/15 06:01:57;;;;;;;23.42;13.60;;;;;;;13.02;67.34;99298.38;4406415;32;20039;-78
2021/05/15 06:04:23;;;;;;;23.95;12.90;;;;;;;13.03;67.73;99291.44;4401742;32;20093;-78
2021/05/15 06:06:49;;;;;;;27.10;13.55;;;;;;;13.04;67.92;99293.00;4408920;32;20114;-78
2021/05/15 06:09:18;;;;;;;27.20;14.38;;;;;;;13.10;68.10;99293.88;4407443;32;20035;-78
2021/05/15 06:11:44;;;;;;;26.35;14.27;;;;;;;13.07;68.28;99289.19;4408570;32;20485;-78
2021/05/15 06:14:09;;;;;;;27.67;14.45;;;;;;;12.98;68.70;99297.00;4407547;32;20042;-77
2021/05/15 06:16:35;;;;;;;30.05;14.57;;;;;;;12.96;69.53;99303.12;4408736;32;20041;-78
2021/05/15 06:19:00;;;;;;;25.80;14.20;;;;;;;12.98;69.10;99300.56;4409256;32;20046;-78
2021/05/15 06:21:27;;;;;;;30.08;14.52;;;;;;;13.00;68.70;99297.28;4404713;32;20073;-78
2021/05/15 06:23:53;;;;;;;27.90;14.57;;;;;;;13.00;68.84;99300.13;4408948;32;20517;-78
2021/05/15 06:26:19;;;;;;;28.95;14.93;;;;;;;12.93;68.15;99295.62;4407409;32;20058;-78
2021/05/15 06:28:45;;;;;;;24.67;13.82;;;;;;;12.85;68.46;99291.63;4406505;32;20080;-78
2021/05/15 06:31:11;;;;;;;26.00;14.25;;;;;;;12.84;69.23;99298.56;4411506;32;20046;-77
2021/05/15 06:33:37;;;;;;;29.85;15.93;;;;;;;12.83;69.70;99299.84;4405961;32;20467;-77
2021/05/15 06:36:03;;;;;;;30.37;16.92;;;;;;;12.77;69.32;99282.03;4407401;32;20086;-77
2021/05/15 06:38:29;;;;;;;30.85;16.10;;;;;;;12.70;70.53;99284.47;4412330;32;20093;-76
2021/05/15 06:40:55;;;;;;;31.35;16.10;;;;;;;12.66;70.54;99273.38;4407618;32;20105;-77
2021/05/15 06:43:20;;;;;;;37.03;16.95;;;;;;;12.55;71.50;99276.00;4408834;32;20030;-77
2021/05/15 06:45:46;;;;;;;31.00;16.42;;;;;;;12.46;71.97;99278.94;4406586;32;20105;-77
2021/05/15 06:48:12;;;;;;;33.53;17.35;;;;;;;12.40;72.65;99272.41;4410555;32;20095;-77
2021/05/15 06:50:38;;;;;;;32.28;16.50;;;;;;;12.38;72.54;99274.94;4405254;32;20030;-77
2021/05/15 06:53:03;;;;;;;38.47;16.85;;;;;;;12.32;72.88;99265.59;4404950;32;20073;-78
2021/05/15 06:55:29;;;;;;;34.53;16.83;;;;;;;12.22;72.97;99266.19;4405291;32;20117;-78
2021/05/15 06:57:55;;;;;;;31.90;17.55;;;;;;;12.19;74.60;99261.50;4407387;32;20026;-77
2021/05/15 07:00:22;;;;;;;40.90;20.90;;;;;;;12.24;75.27;99253.13;4407624;32;20124;-78
2021/05/15 07:02:49;;;;;;;32.05;17.50;;;;;;;12.39;75.87;99256.75;4407199;32;20049;-78
2021/05/15 07:05:15;;;;;;;32.85;18.23;;;;;;;12.46;74.49;99261.22;4375516;32;20050;-78
2021/05/15 07:07:41;;;;;;;36.28;18.12;;;;;;;12.58;74.78;99258.09;4378064;32;20039;-78
2021/05/15 07:10:07;;;;;;;33.78;18.20;;;;;;;12.68;75.52;99250.31;4375676;32;20430;-78
2021/05/15 07:12:33;;;;;;;34.63;18.10;;;;;;;12.86;75.84;99258.56;4379360;32;20075;-78
2021/05/15 07:14:59;;;;;;;32.55;17.87;;;;;;;12.89;73.90;99249.88;4375658;32;20427;-79
2021/05/15 07:17:25;;;;;;;35.85;19.60;;;;;;;13.04;72.85;99245.00;4380206;32;20125;-78
2021/05/15 07:19:53;;;;;;;32.20;18.75;;;;;;;13.12;73.49;99245.34;4380991;32;20496;-78
2021/05/15 07:22:22;;;;;;;36.25;18.17;;;;;;;13.28;73.37;99244.81;4376331;32;20034;-78
2021/05/15 07:24:49;;;;;;;32.85;18.58;;;;;;;13.36;73.34;99243.12;4376773;32;20034;-78
2021/05/15 07:27:16;;;;;;;34.28;20.00;;;;;;;13.49;73.22;99238.69;4380094;32;20864;-78
2021/05/15 07:29:42;;;;;;;36.88;19.73;;;;;;;13.43;71.19;99243.50;4378439;32;20039;-78
2021/05/15 07:32:07;;;;;;;34.97;18.90;;;;;;;13.16;71.23;99241.06;4377321;32;20109;-78
2021/05/15 07:34:33;;;;;;;36.28;19.87;;;;;;;12.94;71.11;99231.44;4376087;32;20167;-78
2021/05/15 07:36:58;;;;;;;38.00;21.12;;;;;;;13.04;73.15;99232.94;4373744;32;20062;-78
2021/05/15 07:39:24;;;;;;;35.38;20.60;;;;;;;13.29;72.10;99237.91;4378396;32;20030;-78
2021/05/15 07:41:50;;;;;;;39.55;21.55;;;;;;;13.41;70.43;99226.25;4378368;32;20369;-79
2021/05/15 07:44:18;;;;;;;36.20;20.48;;;;;;;13.53;70.07;99233.59;4375588;32;20417;-79
2021/05/15 07:46:44;;;;;;;41.17;22.42;;;;;;;13.57;69.80;99228.50;4379198;32;20420;-78
2021/05/15 07:49:09;;;;;;;40.63;22.17;;;;;;;13.83;71.65;99225.72;4373665;32;20089;-79
2021/05/15 07:51:35;;;;;;;44.45;20.70;;;;;;;14.05;70.79;99221.09;4375756;32;20038;-79
2021/05/15 07:54:01;;;;;;;36.00;21.58;;;;;;;14.21;69.66;99224.59;4375248;32;20750;-79
2021/05/15 07:56:27;;;;;;;41.53;22.13;;;;;;;14.24;69.13;99227.25;4378325;32;20538;-78
2021/05/15 07:58:54;;;;;;;35.83;20.30;;;;;;;14.27;69.44;99228.28;4377861;32;20100;-79
2021/05/15 08:01:20;;;;;;;36.30;20.67;;;;;;;14.38;68.42;99229.16;4376174;32;20101;-79
2021/05/15 08:03:45;;;;;;;41.55;21.67;;;;;;;14.39;66.81;99225.03;4386298;32;20054;-78
2021/05/15 08:06:11;;;;;;;32.45;19.35;;;;;;;14.54;66.55;99224.94;4406379;32;20502;-79
2021/05/15 08:08:37;;;;;;;38.53;22.62;;;;;;;14.67;66.12;99228.12;4404347;32;20224;-79
2021/05/15 08:11:04;;;;;;;42.03;21.55;;;;;;;14.96;68.20;99222.13;4405391;32;20484;-78
2021/05/15 08:13:30;;;;;;;38.22;22.20;;;;;;;14.94;65.69;99224.72;4406816;32;20382;-79
2021/05/15 08:15:55;;;;;;;38.83;23.15;;;;;;;15.08;66.23;99223.78;4406910;32;20419;-79
2021/05/15 08:18:21;;;;;;;34.05;20.90;;;;;;;15.16;66.05;99222.03;4404045;32;20063;-78
2021/05/15 08:20:47;;;;;;;35.75;22.05;;;;;;;15.23;66.50;99221.53;4404395;32;20018;-78
2021/05/15 08:23:13;;;;;;;34.50;21.30;;;;;;;15.41;65.61;99226.84;4403910;32;20101;-78
2021/05/15 08:25:40;;;;;;;36.08;22.15;;;;;;;15.32;64.18;99232.69;4405207;32;20089;-78
2021/05/15 08:28:10;;;;;;;41.92;24.20;;;;;;;15.49;61.62;99227.88;4403773;32;20049;-78
2021/05/15 08:30:37;;;;;;;36.10;22.73;;;;;;;15.69;62.95;99227.72;4404423;32;20058;-78
2021/05/15 08:33:03;;;;;;;37.97;23.00;;;;;;;16.02;61.73;99221.38;4404836;32;20066;-78
2021/05/15 08:35:28;;;;;;;35.45;22.95;;;;;;;16.28;59.88;99230.44;4404184;32;20807;-78
2021/05/15 08:37:55;;;;;;;37.38;23.60;;;;;;;16.16;61.15;99214.69;4405850;32;20030;-79
2021/05/15 08:40:25;;;;;;;36.70;23.25;;;;;;;16.31;60.41;99218.06;4404757;32;20458;-78
2021/05/15 08:42:53;;;;;;;42.03;23.75;;;;;;;16.67;59.12;99217.09;4408088;32;20382;-79
2021/05/15 08:45:19;;;;;;;38.67;24.00;;;;;;;16.80;60.22;99215.28;4406015;32;20084;-78
2021/05/15 08:47:46;;;;;;;39.55;23.90;;;;;;;17.10;59.69;99212.66;4407778;32;20434;-78
2021/05/15 08:50:15;;;;;;;38.30;24.02;;;;;;;17.01;56.45;99210.09;4407224;32;20184;-79
2021/05/15 08:52:45;;;;;;;40.40;23.92;;;;;;;17.15;57.80;99204.09;4403645;32;20098;-78
2021/05/15 08:55:14;;;;;;;37.85;24.20;;;;;;;17.45;56.48;99196.56;4406524;32;20573;-79
2021/05/15 08:57:39;;;;;;;40.03;25.58;;;;;;;17.58;55.88;99191.06;4395037;32;20489;-78
2021/05/15 09:00:12;;;;;;;43.85;25.00;;;;;;;17.85;55.99;99189.38;4404260;32;20034;-78
2021/05/15 09:02:39;;;;;;;38.90;23.90;;;;;;;17.84;54.99;99187.84;4403950;32;20087;-78
2021/05/15 09:05:07;;;;;;;41.83;25.02;;;;;;;18.04;55.10;99183.84;4405138;32;20082;-78
2021/05/15 09:07:33;;;;;;;40.10;24.95;;;;;;;18.28;56.11;99184.72;4405443;32;20108;-78
2021/05/15 09:09:59;;;;;;;37.40;23.67;;;;;;;18.32;55.37;99190.12;4405309;32;20023;-78
2021/05/15 09:12:25;;;;;;;41.60;24.17;;;;;;;18.53;53.97;99188.47;4404086;32;20021;-78
2021/05/15 09:15:00;;;;;;;37.28;23.40;;;;;;;18.69;53.84;99182.62;4403917;32;20112;-78
2021/05/15 09:17:26;;;;;;;41.97;23.48;;;;;;;18.94;52.45;99183.41;4406587;32;20438;-77
2021/05/15 09:19:54;;;;;;;37.67;22.35;;;;;;;19.19;52.83;99182.09;4403290;32;20061;-79
2021/05/15 09:22:27;;;;;;;40.28;24.33;;;;;;;19.64;51.43;99183.16;4405327;32;20098;-78
2021/05/15 09:24:54;;;;;;;36.95;24.75;;;;;;;19.87;50.85;99177.91;4410055;32;20096;-77
2021/05/15 09:27:32;;;;;;;39.92;24.48;;;;;;;19.90;51.48;99180.47;4404929;32;20042;-77
2021/05/15 09:29:58;;;;;;;37.47;23.48;;;;;;;19.56;50.76;99173.66;4411939;32;20724;-77
2021/05/15 09:32:40;;;;;;;39.08;23.52;;;;;;;19.74;51.25;99172.91;4408993;32;20051;-78
2021/05/15 09:35:06;;;;;;;39.58;24.63;;;;;;;19.50;51.52;99170.87;4405854;32;20145;-78
2021/05/15 09:37:36;;;;;;;36.50;23.85;;;;;;;19.82;51.40;99170.22;4397982;32;20374;-78
2021/05/15 09:42:55;;;;;;;36.90;21.83;;;;;;;20.88;48.51;99165.16;3982435;32;15155853;-78
2021/05/15 09:50:38;;;;;;;29.17;18.73;;;;;;;21.24;44.49;99158.53;3998300;31;15018381;-79
2021/05/15 09:55:42;;;;;;;32.60;18.58;;;;;;;21.03;44.37;99146.22;3983244;32;15025605;-78
2021/05/15 09:58:09;;;;;;;31.60;19.17;;;;;;;21.03;44.37;99146.22;4439173;32;20060;-78
2021/05/15 10:03:18;;;;;;;36.28;20.95;;;;;;;21.32;45.34;99139.37;3982639;32;15025601;-78
2021/05/15 10:05:44;;;;;;;32.53;19.42;;;;;;;21.32;45.34;99139.37;4434215;32;20817;-79
2021/05/15 10:08:10;;;;;;;31.10;19.00;;;;;;;21.11;43.11;99134.88;4442263;32;20045;-78
2021/05/15 10:10:36;;;;;;;32.75;17.87;;;;;;;21.66;44.00;99123.03;4440097;32;20497;-79
2021/05/15 10:13:02;;;;;;;28.67;18.12;;;;;;;21.85;42.76;99128.66;4440474;32;20116;-78
2021/05/15 10:15:29;;;;;;;32.17;18.08;;;;;;;21.39;40.53;99129.38;4439015;32;20450;-78
2021/05/15 10:17:56;;;;;;;37.00;19.35;;;;;;;21.06;43.23;99122.22;4437290;32;20021;-78
2021/05/15 10:20:23;;;;;;;35.33;20.00;;;;;;;20.53;44.68;99129.16;4440202;32;20732;-78
2021/05/15 10:22:49;;;;;;;32.55;18.60;;;;;;;20.17;45.09;99122.22;4438668;32;20045;-77
2021/05/15 10:25:16;;;;;;;26.70;17.65;;;;;;;19.57;45.35;99124.63;4438159;32;20052;-78
2021/05/15 10:27:43;;;;;;;31.70;19.23;;;;;;;19.73;45.64;99128.56;4436232;32;20437;-78
2021/05/15 10:33:09;;;;;;;32.08;19.55;;;;;;;18.85;49.39;99118.19;3984325;32;15025748;-79
2021/05/15 10:35:44;;;;;;;28.17;17.83;;;;;;;18.85;49.39;99118.19;4435772;32;20334;-77
2021/05/15 10:40:48;;;;;;;25.33;15.13;;;;;;;19.62;44.16;99115.22;4004630;31;15017274;-76
2021/05/15 10:43:31;;;;;;;31.65;16.15;;;;;;;19.62;44.16;99115.22;4457972;32;20625;-76
2021/05/15 10:45:57;;;;;;;27.25;16.05;;;;;;;19.46;46.60;99112.59;4460237;32;20028;-77
2021/05/15 10:48:26;;;;;;;26.40;14.68;;;;;;;19.89;44.18;99107.56;4458957;32;20075;-77
2021/05/15 10:53:30;;;;;;;21.33;12.77;;;;;;;20.68;42.26;99112.25;3954604;32;15749606;-76
2021/05/15 10:56:23;;;;;;;21.75;12.95;;;;;;;20.68;42.26;99112.25;4436808;32;20065;-76
2021/05/15 10:58:51;;;;;;;19.95;12.40;;;;;;;20.44;42.87;99106.72;4435386;32;20201;-78
2021/05/15 11:03:53;;;;;;;21.27;12.67;;;;;;;21.47;42.50;99099.53;3997312;31;15016482;-77
2021/05/15 11:06:24;;;;;;;21.12;12.75;;;;;;;21.47;42.50;99099.53;4433767;32;20130;-77
2021/05/15 11:11:37;;;;;;;20.50;12.93;;;;;;;21.73;41.50;99100.78;3997857;31;15030224;-78
2021/05/15 11:14:04;;;;;;;21.25;13.18;;;;;;;21.73;41.50;99100.78;4453734;32;21201;-78
2021/05/15 11:16:32;;;;;;;22.40;14.48;;;;;;;20.71;43.22;99096.09;4456556;32;20041;-78
2021/05/15 11:19:07;;;;;;;22.77;15.65;;;;;;;19.99;46.38;99094.44;4449224;32;20343;-77
2021/05/15 11:21:35;;;;;;;23.90;16.05;;;;;;;19.17;49.09;99088.53;4455546;32;20169;-78
2021/05/15 11:24:02;;;;;;;24.77;16.40;;;;;;;19.06;50.52;99085.84;4456492;32;20137;-77
2021/05/15 11:26:39;;;;;;;22.17;14.73;;;;;;;18.70;52.64;99077.94;4454771;32;20071;-77
2021/05/15 11:29:06;;;;;;;28.00;17.00;;;;;;;18.58;52.99;99077.28;4455658;32;20072;-77
2021/05/15 11:31:38;;;;;;;25.80;16.02;;;;;;;18.36;55.55;99077.47;4454768;32;20029;-77
2021/05/15 11:34:19;;;;;;;26.20;16.17;;;;;;;18.29;54.64;99078.06;4456755;32;20052;-78
2021/05/15 11:36:45;;;;;;;29.25;16.40;;;;;;;18.12;55.20;99068.88;4453811;32;20443;-77
2021/05/15 11:39:11;;;;;;;22.48;16.08;;;;;;;18.00;55.40;99067.44;4455480;32;20116;-78
2021/05/15 11:41:38;;;;;;;24.77;15.23;;;;;;;17.99;55.40;99060.22;4455684;32;20128;-77